createdAt,value
2023-01-30T00:02:25.059Z,98596.25
2023-01-30T00:04:58.193Z,98595.88
2023-01-30T00:07:31.201Z,98583.53
2023-01-30T00:10:05.173Z,98582.50
2023-01-30T00:12:38.209Z,98588.91
2023-01-30T00:15:11.872Z,98575.88
2023-01-30T00:17:46.237Z,98571.38
2023-01-30T00:20:19.748Z,98562.28
2023-01-30T00:23:00.746Z,98559.78
2023-01-30T00:25:34.509Z,98557.81
2023-01-30T00:28:07.616Z,98546.38
2023-01-30T00:30:40.956Z,98551.19
2023-01-30T00:33:15.747Z,98547.81
2023-01-30T00:35:51.419Z,98543.16
2023-01-30T00:38:25.142Z,98539.59
2023-01-30T00:40:58.237Z,98533.16
2023-01-30T00:43:48.759Z,98541.38
2023-01-30T00:46:45.471Z,98539.06
2023-01-30T00:49:20.299Z,98530.88
2023-01-30T00:51:53.303Z,98537.66
2023-01-30T00:54:26.365Z,98541.38
2023-01-30T00:56:59.389Z,98545.09
2023-01-30T00:59:32.432Z,98542.06
2023-01-30T01:02:05.498Z,98542.41
2023-01-30T01:04:43.388Z,98551.66
2023-01-30T01:07:16.759Z,98554.13
2023-01-30T01:09:49.791Z,98568.84
2023-01-30T01:12:22.765Z,98567.75
2023-01-30T01:14:55.764Z,98576.34
2023-01-30T01:17:29.025Z,98583.88
2023-01-30T01:20:03.784Z,98592.06
2023-01-30T01:22:36.978Z,98603.81
2023-01-30T01:25:11.083Z,98602.53
2023-01-30T01:27:44.230Z,98608.97
2023-01-30T01:30:18.428Z,98601.63
2023-01-30T01:32:51.466Z,98604.88
2023-01-30T01:35:25.828Z,98616.25
2023-01-30T01:37:58.829Z,98618.00
2023-01-30T01:40:49.311Z,98609.13
2023-01-30T01:43:25.110Z,98611.47
2023-01-30T01:46:03.069Z,98615.28
2023-01-30T01:48:40.289Z,98625.44
2023-01-30T01:51:19.089Z,98618.81
2023-01-30T01:53:57.734Z,98596.84
2023-01-30T01:56:32.660Z,98590.28
2023-01-30T01:59:11.649Z,98590.66
2023-01-30T02:01:44.650Z,98594.19
2023-01-30T02:04:37.942Z,98601.84
2023-01-30T02:07:12.336Z,98582.97
2023-01-30T02:09:45.896Z,98596.06
2023-01-30T02:12:19.222Z,98598.06
2023-01-30T02:14:53.969Z,98599.84
2023-01-30T02:17:27.451Z,98599.84
2023-01-30T02:20:09.264Z,98591.28
2023-01-30T02:23:30.432Z,98597.91
2023-01-30T02:26:40.589Z,98602.91
2023-01-30T02:29:54.190Z,98592.53
2023-01-30T02:32:35.785Z,98594.72
2023-01-30T02:35:20.738Z,98595.66
2023-01-30T02:38:08.462Z,98578.31
2023-01-30T02:40:53.679Z,98554.34
2023-01-30T02:43:35.407Z,98551.84
2023-01-30T02:46:16.643Z,98552.22
2023-01-30T02:48:57.972Z,98560.63
2023-01-30T02:51:35.373Z,98555.09
2023-01-30T02:54:09.562Z,98551.31
2023-01-30T02:56:47.738Z,98533.13
2023-01-30T02:59:26.913Z,98540.81
2023-01-30T03:02:39.075Z,98544.03
2023-01-30T03:05:31.265Z,98537.72
2023-01-30T03:08:16.513Z,98543.50
2023-01-30T03:11:00.105Z,98521.50
2023-01-30T03:13:46.167Z,98532.22
2023-01-30T03:16:23.881Z,98525.06
2023-01-30T03:18:56.932Z,98510.94
2023-01-30T03:21:31.429Z,98510.41
2023-01-30T03:24:04.644Z,98500.94
2023-01-30T03:26:43.604Z,98504.00
2023-01-30T03:29:17.023Z,98509.34
2023-01-30T03:31:50.134Z,98501.84
2023-01-30T03:34:23.305Z,98468.91
2023-01-30T03:36:57.955Z,98468.19
2023-01-30T03:39:31.086Z,98437.06
2023-01-30T03:42:04.584Z,98423.81
2023-01-30T03:44:37.606Z,98415.81
2023-01-30T03:47:10.605Z,98426.38
2023-01-30T03:49:43.639Z,98434.06
2023-01-30T03:52:17.979Z,98442.47
2023-01-30T03:54:51.061Z,98442.13
2023-01-30T03:57:24.072Z,98446.03
2023-01-30T03:59:57.118Z,98444.03
2023-01-30T04:02:30.138Z,98443.16
2023-01-30T04:05:03.179Z,98453.09
2023-01-30T04:07:37.529Z,98445.56
2023-01-30T04:10:15.308Z,98440.91
2023-01-30T04:12:48.623Z,98449.47
2023-01-30T04:15:21.662Z,98450.53
2023-01-30T04:17:54.652Z,98443.00
2023-01-30T04:20:27.708Z,98438.69
2023-01-30T04:23:02.128Z,98436.38
2023-01-30T04:25:35.187Z,98441.72
2023-01-30T04:28:08.214Z,98453.50
2023-01-30T04:30:41.239Z,98451.84
2023-01-30T04:33:14.436Z,98457.00
2023-01-30T04:35:53.571Z,98446.06
2023-01-30T04:38:29.436Z,98442.94
2023-01-30T04:41:03.434Z,98430.50
2023-01-30T04:43:37.171Z,98423.31
2023-01-30T04:46:10.187Z,98422.41
2023-01-30T04:48:43.285Z,98417.88
2023-01-30T04:51:16.327Z,98419.97
2023-01-30T04:53:50.648Z,98427.16
2023-01-30T04:56:23.685Z,98431.06
2023-01-30T04:58:56.682Z,98422.69
2023-01-30T05:01:33.620Z,98425.59
2023-01-30T05:04:07.912Z,98416.09
2023-01-30T05:06:41.006Z,98421.78
2023-01-30T05:09:15.439Z,98419.59
2023-01-30T05:11:48.421Z,98412.34
2023-01-30T05:14:21.424Z,98406.84
2023-01-30T05:16:54.462Z,98416.22
2023-01-30T05:19:27.544Z,98420.75
2023-01-30T05:22:00.578Z,98415.16
2023-01-30T05:24:34.993Z,98400.13
2023-01-30T05:27:08.085Z,98395.78
2023-01-30T05:29:41.177Z,98396.22
2023-01-30T05:32:15.352Z,98395.66
2023-01-30T05:34:50.410Z,98394.59
2023-01-30T05:37:24.447Z,98392.56
2023-01-30T05:39:58.885Z,98392.91
2023-01-30T05:42:31.940Z,98385.69
2023-01-30T05:45:05.652Z,98386.25
2023-01-30T05:47:38.655Z,98388.41
2023-01-30T05:50:12.808Z,98380.47
2023-01-30T05:52:45.843Z,98381.34
2023-01-30T05:55:20.563Z,98377.84
2023-01-30T05:57:53.934Z,98362.22
2023-01-30T06:00:27.246Z,98373.56
2023-01-30T06:03:00.323Z,98383.88
2023-01-30T06:05:33.794Z,98384.91
2023-01-30T06:08:08.069Z,98389.94
2023-01-30T06:10:42.443Z,98368.09
2023-01-30T06:13:15.656Z,98372.19
2023-01-30T06:15:48.713Z,98365.75
2023-01-30T06:18:21.819Z,98366.06
2023-01-30T06:20:55.751Z,98360.72
2023-01-30T06:23:29.321Z,98358.94
2023-01-30T06:26:06.256Z,98363.00
2023-01-30T06:28:41.129Z,98353.13
2023-01-30T06:31:14.150Z,98344.47
2023-01-30T06:33:49.342Z,98345.16
2023-01-30T06:36:22.369Z,98340.75
2023-01-30T06:38:55.433Z,98352.75
2023-01-30T06:41:29.767Z,98347.16
2023-01-30T06:44:02.870Z,98347.28
2023-01-30T06:46:35.893Z,98348.88
2023-01-30T06:49:09.121Z,98345.09
2023-01-30T06:51:42.106Z,98349.38
2023-01-30T06:54:15.235Z,98352.19
2023-01-30T06:56:49.585Z,98354.13
2023-01-30T06:59:22.636Z,98356.84
2023-01-30T07:01:55.652Z,98348.28
2023-01-30T07:04:28.781Z,98353.19
2023-01-30T07:07:01.847Z,98348.16
2023-01-30T07:09:34.925Z,98353.13
2023-01-30T07:12:09.393Z,98342.78
2023-01-30T07:14:42.390Z,98350.81
2023-01-30T07:17:16.071Z,98356.03
2023-01-30T07:19:49.293Z,98358.28
2023-01-30T07:22:22.313Z,98365.63
2023-01-30T07:24:55.479Z,98370.09
2023-01-30T07:27:29.864Z,98367.50
2023-01-30T07:30:02.932Z,98372.75
2023-01-30T07:32:35.926Z,98362.22
2023-01-30T07:35:10.043Z,98375.44
2023-01-30T07:37:46.314Z,98374.91
2023-01-30T07:40:20.524Z,98367.66
2023-01-30T07:43:03.538Z,98367.03
2023-01-30T07:45:39.730Z,98364.13
2023-01-30T07:48:15.788Z,98364.22
2023-01-30T07:50:48.904Z,98357.84
2023-01-30T07:53:21.910Z,98362.34
2023-01-30T07:55:54.905Z,98362.78
2023-01-30T07:58:30.029Z,98361.16
2023-01-30T08:01:04.303Z,98370.72
2023-01-30T08:03:37.414Z,98373.00
2023-01-30T08:06:10.635Z,98368.19
2023-01-30T08:08:44.150Z,98370.94
2023-01-30T08:11:18.353Z,98363.88
2023-01-30T08:13:52.739Z,98371.16
2023-01-30T08:16:25.779Z,98349.78
2023-01-30T08:18:59.195Z,98366.25
2023-01-30T08:21:32.198Z,98373.78
2023-01-30T08:24:06.073Z,98385.53
2023-01-30T08:26:39.153Z,98390.53
2023-01-30T08:29:13.519Z,98378.09
2023-01-30T08:31:46.581Z,98353.53
2023-01-30T08:34:19.597Z,98367.75
2023-01-30T08:36:52.890Z,98369.41
2023-01-30T08:39:25.872Z,98337.88
2023-01-30T08:41:58.879Z,98327.31
2023-01-30T08:44:33.220Z,98329.34
2023-01-30T08:47:06.487Z,98337.78
2023-01-30T08:49:39.595Z,98355.59
2023-01-30T08:52:12.703Z,98351.09
2023-01-30T08:54:45.798Z,98344.91
2023-01-30T08:57:19.113Z,98323.75
2023-01-30T08:59:53.473Z,98317.81
2023-01-30T09:02:26.679Z,98316.75
2023-01-30T09:04:59.760Z,98328.66
2023-01-30T09:07:33.090Z,98318.28
2023-01-30T09:10:07.350Z,98298.84
2023-01-30T09:12:40.450Z,98283.88
2023-01-30T09:15:14.821Z,98284.47
2023-01-30T09:17:48.020Z,98284.16
2023-01-30T09:20:21.333Z,98284.63
2023-01-30T09:22:54.389Z,98279.72
2023-01-30T09:25:27.477Z,98277.66
2023-01-30T09:28:00.597Z,98287.28
2023-01-30T09:30:35.665Z,98296.94
2023-01-30T09:33:08.684Z,98288.91
2023-01-30T09:35:41.666Z,98266.94
2023-01-30T09:38:14.862Z,98286.84
2023-01-30T09:41:07.383Z,98284.31
2023-01-30T09:44:02.038Z,98284.13
2023-01-30T09:46:49.557Z,98278.00
2023-01-30T09:49:36.233Z,98266.69
2023-01-30T09:52:25.314Z,98260.78
2023-01-30T09:55:04.489Z,98248.19
2023-01-30T09:57:37.835Z,98252.78
2023-01-30T10:00:22.252Z,98246.00
2023-01-30T10:03:06.365Z,98237.84
2023-01-30T10:05:45.175Z,98239.81
2023-01-30T10:08:44.364Z,98232.94
2023-01-30T10:11:34.073Z,98241.22
2023-01-30T10:14:33.815Z,98223.63
2023-01-30T10:17:32.512Z,98204.72
2023-01-30T10:20:31.690Z,98194.81
2023-01-30T10:23:35.445Z,98198.69
2023-01-30T10:26:12.916Z,98194.84
2023-01-30T10:29:06.684Z,98188.66
2023-01-30T10:31:46.509Z,98190.34
2023-01-30T10:34:24.196Z,98187.84
2023-01-30T10:37:08.464Z,98182.56
2023-01-30T10:39:55.258Z,98191.19
2023-01-30T10:42:36.124Z,98188.75
2023-01-30T10:45:15.773Z,98191.56
2023-01-30T10:48:10.894Z,98182.81
2023-01-30T10:50:52.739Z,98185.56
2023-01-30T10:53:34.075Z,98185.88
2023-01-30T10:56:17.121Z,98172.63
2023-01-30T10:58:59.803Z,98172.56
2023-01-30T11:01:38.953Z,98177.63
2023-01-30T11:04:31.523Z,98172.56
2023-01-30T11:07:05.383Z,98182.31
2023-01-30T11:09:46.427Z,98183.81
2023-01-30T11:12:19.482Z,98182.28
2023-01-30T11:14:59.661Z,98190.75
2023-01-30T11:17:36.592Z,98183.56
2023-01-30T11:20:17.165Z,98187.69
2023-01-30T11:22:55.129Z,98182.97
2023-01-30T11:25:29.917Z,98178.97
2023-01-30T11:28:06.508Z,98180.06
2023-01-30T11:30:39.521Z,98178.03
2023-01-30T11:33:16.885Z,98184.91
2023-01-30T11:35:57.557Z,98183.72
2023-01-30T11:38:33.482Z,98194.13
2023-01-30T11:41:20.804Z,98194.44
2023-01-30T11:44:02.728Z,98190.34
2023-01-30T11:46:39.912Z,98188.00
2023-01-30T11:49:45.064Z,98196.03
2023-01-30T11:52:09.850Z,98195.78
2023-01-30T11:54:45.450Z,98187.19
2023-01-30T11:57:21.680Z,98190.13
2023-01-30T11:59:57.942Z,98187.03
2023-01-30T12:02:33.786Z,98184.53
2023-01-30T12:05:21.628Z,98170.56
2023-01-30T12:07:54.882Z,98176.94
2023-01-30T12:10:32.428Z,98162.59
2023-01-30T12:13:19.099Z,98158.69
2023-01-30T12:16:04.564Z,98142.84
2023-01-30T12:18:45.733Z,98132.59
2023-01-30T12:21:32.782Z,98139.69
2023-01-30T12:24:19.106Z,98130.22
2023-01-30T12:26:57.567Z,98146.38
2023-01-30T12:29:37.343Z,98140.25
2023-01-30T12:32:15.643Z,98136.22
2023-01-30T12:34:48.774Z,98130.19
2023-01-30T12:37:38.262Z,98135.31
2023-01-30T12:40:25.548Z,98137.09
2023-01-30T12:43:17.934Z,98132.13
2023-01-30T12:46:05.946Z,98143.38
2023-01-30T12:49:10.995Z,98158.28
2023-01-30T12:52:02.434Z,98152.34
2023-01-30T12:54:52.949Z,98164.63
2023-01-30T12:57:35.436Z,98159.88
2023-01-30T13:00:35.053Z,98156.78
2023-01-30T13:03:34.503Z,98172.81
2023-01-30T13:06:26.819Z,98160.03
2023-01-30T13:09:15.287Z,98164.84
2023-01-30T13:12:02.201Z,98171.63
2023-01-30T13:14:42.108Z,98181.00
2023-01-30T13:17:39.715Z,98160.09
2023-01-30T13:20:38.697Z,98173.03
2023-01-30T13:23:19.172Z,98174.25
2023-01-30T13:26:03.931Z,98168.16
2023-01-30T13:28:41.637Z,98177.94
2023-01-30T13:31:21.446Z,98174.97
2023-01-30T13:34:05.724Z,98180.00
2023-01-30T13:36:45.780Z,98189.19
2023-01-30T13:39:28.473Z,98189.19
2023-01-30T13:42:09.731Z,98204.31
2023-01-30T13:44:45.043Z,98209.63
2023-01-30T13:47:40.291Z,98206.56
2023-01-30T13:50:48.079Z,98194.97
2023-01-30T13:53:31.370Z,98208.16
2023-01-30T13:56:39.824Z,98221.63
2023-01-30T13:59:22.455Z,98228.88
2023-01-30T14:02:23.016Z,98231.00
2023-01-30T14:04:59.546Z,98248.47
2023-01-30T14:07:35.212Z,98242.00
2023-01-30T14:10:20.446Z,98239.19
2023-01-30T14:12:55.766Z,98256.50
2023-01-30T14:15:31.758Z,98245.72
2023-01-30T14:18:08.522Z,98264.13
2023-01-30T14:20:46.203Z,98260.69
2023-01-30T14:23:27.180Z,98258.88
2023-01-30T14:26:02.273Z,98256.94
2023-01-30T14:28:48.058Z,98264.50
2023-01-30T14:31:54.846Z,98263.34
2023-01-30T14:35:24.826Z,98274.59
2023-01-30T14:38:14.551Z,98276.69
2023-01-30T14:41:27.121Z,98272.97
2023-01-30T14:44:00.283Z,98285.88
2023-01-30T14:46:55.069Z,98286.44
2023-01-30T14:49:34.053Z,98290.16
2023-01-30T14:52:28.171Z,98290.28
2023-01-30T14:55:01.373Z,98292.38
2023-01-30T14:57:35.789Z,98314.94
2023-01-30T15:00:19.709Z,98310.34
2023-01-30T15:02:57.014Z,98311.38
2023-01-30T15:05:33.999Z,98316.72
2023-01-30T15:08:11.876Z,98319.06
2023-01-30T15:11:06.885Z,98327.22
2023-01-30T15:13:58.828Z,98328.88
2023-01-30T15:16:51.768Z,98326.63
2023-01-30T15:19:53.344Z,98334.78
2023-01-30T15:22:38.376Z,98346.09
2023-01-30T15:25:28.865Z,98350.97
2023-01-30T15:28:11.723Z,98351.16
2023-01-30T15:31:02.131Z,98353.69
2023-01-30T15:33:35.270Z,98354.69
2023-01-30T15:36:21.597Z,98360.22
2023-01-30T15:39:02.111Z,98364.97
2023-01-30T15:41:42.923Z,98368.28
2023-01-30T15:44:54.901Z,98372.28
2023-01-30T15:47:48.902Z,98373.22
2023-01-30T15:50:22.417Z,98378.13
2023-01-30T15:52:56.606Z,98373.53
2023-01-30T15:55:32.491Z,98371.00
2023-01-30T15:58:11.410Z,98357.47
2023-01-30T16:00:48.457Z,98364.44
2023-01-30T16:03:26.021Z,98378.44
2023-01-30T16:05:59.851Z,98389.13
2023-01-30T16:08:35.497Z,98391.66
2023-01-30T16:11:08.515Z,98401.03
2023-01-30T16:13:42.723Z,98391.34
2023-01-30T16:16:20.576Z,98407.38
2023-01-30T16:18:58.843Z,98408.13
2023-01-30T16:21:35.824Z,98418.22
2023-01-30T16:24:16.637Z,98418.69
2023-01-30T16:26:52.914Z,98420.00
2023-01-30T16:29:28.525Z,98415.22
2023-01-30T16:32:02.113Z,98421.03
2023-01-30T16:34:38.891Z,98431.44
2023-01-30T16:37:28.212Z,98431.31
2023-01-30T16:40:14.616Z,98436.03
2023-01-30T16:42:58.020Z,98432.16
2023-01-30T16:46:39.993Z,98436.16
2023-01-30T16:49:22.301Z,98440.44
2023-01-30T16:52:06.856Z,98430.31
2023-01-30T16:54:41.084Z,98432.44
2023-01-30T16:57:31.676Z,98433.50
2023-01-30T17:00:13.159Z,98435.72
2023-01-30T17:02:52.909Z,98446.00
2023-01-30T17:05:28.760Z,98448.81
2023-01-30T17:08:03.227Z,98449.69
2023-01-30T17:10:55.451Z,98450.47
2023-01-30T17:13:34.760Z,98448.34
2023-01-30T17:16:28.851Z,98462.22
2023-01-30T17:19:02.736Z,98462.50
2023-01-30T17:21:44.482Z,98462.78
2023-01-30T17:24:22.351Z,98464.84
2023-01-30T17:26:59.531Z,98475.53
2023-01-30T17:29:43.407Z,98457.16
2023-01-30T17:32:17.689Z,98482.09
2023-01-30T17:34:50.766Z,98464.56
2023-01-30T17:37:23.734Z,98489.69
2023-01-30T17:39:58.303Z,98491.91
2023-01-30T17:42:31.561Z,98489.38
2023-01-30T17:45:05.303Z,98498.44
2023-01-30T17:47:38.473Z,98517.56
2023-01-30T17:50:14.705Z,98509.88
2023-01-30T17:52:47.720Z,98513.28
2023-01-30T17:55:22.374Z,98517.88
2023-01-30T17:57:56.456Z,98523.09
2023-01-30T18:00:29.641Z,98520.09
2023-01-30T18:03:02.787Z,98534.66
2023-01-30T18:05:37.110Z,98520.09
2023-01-30T18:08:10.120Z,98531.97
2023-01-30T18:10:44.495Z,98532.59
2023-01-30T18:13:17.563Z,98537.78
2023-01-30T18:15:59.859Z,98543.00
2023-01-30T18:18:33.179Z,98543.00
2023-01-30T18:21:06.746Z,98553.69
2023-01-30T18:23:39.788Z,98565.25
2023-01-30T18:26:14.679Z,98567.19
2023-01-30T18:28:48.727Z,98563.78
2023-01-30T18:31:24.009Z,98567.94
2023-01-30T18:33:57.449Z,98571.94
2023-01-30T18:36:30.468Z,98570.47
2023-01-30T18:39:04.889Z,98565.13
2023-01-30T18:41:39.754Z,98584.56
2023-01-30T18:44:13.025Z,98575.94
2023-01-30T18:46:46.649Z,98579.50
2023-01-30T18:49:19.694Z,98584.56
2023-01-30T18:51:52.776Z,98592.56
2023-01-30T18:54:25.835Z,98587.50
2023-01-30T18:57:00.306Z,98592.13
2023-01-30T18:59:33.367Z,98602.06
2023-01-30T19:02:06.421Z,98595.53
2023-01-30T19:04:39.461Z,98603.13
2023-01-30T19:07:12.540Z,98619.31
2023-01-30T19:09:45.594Z,98615.44
2023-01-30T19:12:37.309Z,98630.59
2023-01-30T19:15:11.207Z,98633.13
2023-01-30T19:17:45.990Z,98640.09
2023-01-30T19:20:21.417Z,98637.88
2023-01-30T19:22:56.004Z,98647.41
2023-01-30T19:25:29.052Z,98643.97
2023-01-30T19:28:03.561Z,98657.50
2023-01-30T19:30:37.840Z,98655.88
2023-01-30T19:33:10.972Z,98668.03
2023-01-30T19:35:44.673Z,98665.06
2023-01-30T19:38:18.372Z,98661.50
2023-01-30T19:40:51.565Z,98659.72
2023-01-30T19:43:26.114Z,98657.03
2023-01-30T19:46:01.524Z,98659.56
2023-01-30T19:48:35.135Z,98655.25
2023-01-30T19:51:14.468Z,98669.50
2023-01-30T19:53:53.902Z,98668.28
2023-01-30T19:56:30.284Z,98658.53
2023-01-30T19:59:05.147Z,98670.41
2023-01-30T20:01:39.972Z,98666.09
2023-01-30T20:04:13.111Z,98661.78
2023-01-30T20:06:46.594Z,98669.66
2023-01-30T20:09:19.829Z,98670.69
2023-01-30T20:11:52.942Z,98688.81
2023-01-30T20:14:27.614Z,98684.66
2023-01-30T20:17:00.870Z,98688.06
2023-01-30T20:19:33.936Z,98689.44
2023-01-30T20:22:08.275Z,98693.91
2023-01-30T20:24:41.316Z,98697.72
2023-01-30T20:27:14.392Z,98700.41
2023-01-30T20:29:49.184Z,98703.81
2023-01-30T20:32:22.289Z,98705.78
2023-01-30T20:34:55.414Z,98703.38
2023-01-30T20:37:29.017Z,98703.06
2023-01-30T20:40:02.076Z,98720.91
2023-01-30T20:42:35.075Z,98720.63
2023-01-30T20:45:11.196Z,98715.31
2023-01-30T20:47:44.244Z,98723.31
2023-01-30T20:50:18.862Z,98714.41
2023-01-30T20:52:52.603Z,98717.25
2023-01-30T20:55:25.739Z,98719.16
2023-01-30T20:57:58.820Z,98712.31
2023-01-30T21:00:33.264Z,98716.47
2023-01-30T21:03:06.364Z,98709.06
2023-01-30T21:05:39.491Z,98715.59
2023-01-30T21:08:12.560Z,98706.38
2023-01-30T21:10:47.228Z,98708.16
2023-01-30T21:13:21.582Z,98711.28
2023-01-30T21:16:04.645Z,98716.47
2023-01-30T21:18:40.393Z,98714.13
2023-01-30T21:21:18.819Z,98720.06
2023-01-30T21:23:56.650Z,98722.31
2023-01-30T21:26:34.677Z,98714.72
2023-01-30T21:29:08.527Z,98716.50
2023-01-30T21:31:43.707Z,98728.63
2023-01-30T21:34:17.109Z,98723.56
2023-01-30T21:37:04.317Z,98731.59
2023-01-30T21:39:55.038Z,98738.88
2023-01-30T21:42:45.755Z,98733.38
2023-01-30T21:45:21.005Z,98740.25
2023-01-30T21:47:55.840Z,98747.63
2023-01-30T21:50:29.427Z,98750.03
2023-01-30T21:53:02.847Z,98745.56
2023-01-30T21:55:35.888Z,98761.00
2023-01-30T21:58:09.128Z,98749.72
2023-01-30T22:00:42.399Z,98750.78
2023-01-30T22:03:16.966Z,98757.66
2023-01-30T22:05:50.003Z,98763.44
2023-01-30T22:08:23.102Z,98764.91
2023-01-30T22:11:07.383Z,98760.13
2023-01-30T22:13:43.046Z,98763.38
2023-01-30T22:16:18.118Z,98769.34
2023-01-30T22:18:56.058Z,98780.34
2023-01-30T22:21:32.374Z,98771.88
2023-01-30T22:24:08.380Z,98774.97
2023-01-30T22:26:41.482Z,98778.53
2023-01-30T22:29:18.009Z,98774.97
2023-01-30T22:31:51.517Z,98787.91
2023-01-30T22:34:26.269Z,98783.00
2023-01-30T22:36:59.408Z,98785.69
2023-01-30T22:39:32.495Z,98787.47
2023-01-30T22:42:06.052Z,98787.47
2023-01-30T22:44:39.779Z,98788.94
2023-01-30T22:47:12.836Z,98795.94
2023-01-30T22:49:47.233Z,98789.84
2023-01-30T22:52:20.300Z,98792.50
2023-01-30T22:54:53.381Z,98792.09
2023-01-30T22:57:26.408Z,98783.59
2023-01-30T22:59:59.628Z,98776.47
2023-01-30T23:02:32.718Z,98771.56
2023-01-30T23:05:09.034Z,98779.13
2023-01-30T23:07:42.097Z,98780.94
2023-01-30T23:10:15.173Z,98773.78
2023-01-30T23:13:05.579Z,98787.47
2023-01-30T23:15:42.821Z,98786.88
2023-01-30T23:18:34.350Z,98786.00
2023-01-30T23:21:13.333Z,98783.00
2023-01-30T23:23:47.145Z,98781.34
2023-01-30T23:26:21.152Z,98786.72
2023-01-30T23:28:54.784Z,98784.59
2023-01-30T23:31:29.291Z,98786.94
2023-01-30T23:34:05.071Z,98780.59
2023-01-30T23:36:40.023Z,98779.72
2023-01-30T23:39:15.167Z,98781.91
2023-01-30T23:41:48.220Z,98774.31
2023-01-30T23:44:21.389Z,98774.94
2023-01-30T23:46:54.458Z,98771.66
2023-01-30T23:49:27.613Z,98772.56
2023-01-30T23:52:02.033Z,98771.94
2023-01-30T23:54:35.195Z,98768.22
2023-01-30T23:57:08.304Z,98757.94
2023-01-30T23:59:41.287Z,98763.56
